Time;durP1;ratioP1;P1;durP2;ratioP2;P2;SDS_P1;SDS_P2;PMS_P1;PMS_P2;Temp;Humidity;BMP_temperature;BMP_pressure;BME280_temperature;BME280_humidity;BME280_pressure;Samples;Min_cycle;Max_cycle;Signal;HPM_P1;HPM_P2
2023/03/22 00:02:03;;;;;;;16.10;7.37;;;;;;;9.27;100.00;100855.56;5023554;28;20067;-82
2023/03/22 00:04:29;;;;;;;17.77;8.80;;;;;;;9.29;100.00;100856.19;5025146;28;20033;-82
2023/03/22 00:06:55;;;;;;;15.37;7.53;;;;;;;9.25;100.00;100854.91;5023504;28;20094;-82
2023/03/22 00:09:20;;;;;;;16.43;8.03;;;;;;;9.27;100.00;100852.88;5023590;28;20041;-82
2023/03/22 00:11:49;;;;;;;15.80;7.40;;;;;;;9.22;100.00;100847.22;5024032;28;20037;-82
2023/03/22 00:14:15;;;;;;;14.33;6.40;;;;;;;9.17;100.00;100847.00;5018052;28;20588;-82
2023/03/22 00:16:41;;;;;;;11.87;5.73;;;;;;;9.21;100.00;100845.56;5022797;28;20117;-82
2023/03/22 00:19:06;;;;;;;10.73;4.57;;;;;;;9.16;100.00;100842.63;5024173;28;20098;-82
2023/03/22 00:21:31;;;;;;;11.47;4.47;;;;;;;9.20;100.00;100838.47;5023470;28;20433;-82
2023/03/22 00:23:57;;;;;;;10.47;4.33;;;;;;;9.16;100.00;100842.63;5023435;28;20049;-82
2023/03/22 00:26:22;;;;;;;10.60;4.27;;;;;;;9.12;100.00;100834.09;5016893;28;20709;-82
2023/03/22 00:28:47;;;;;;;11.33;4.43;;;;;;;9.18;100.00;100826.19;5020635;28;20029;-82
2023/03/22 00:31:13;;;;;;;12.73;4.43;;;;;;;9.19;100.00;100823.28;5023118;28;20810;-82
2023/03/22 00:33:40;;;;;;;11.73;4.37;;;;;;;9.21;100.00;100821.22;5020774;28;20399;-82
2023/03/22 00:36:08;;;;;;;9.57;3.80;;;;;;;9.24;100.00;100823.50;5022449;28;20103;-82
2023/03/22 00:38:37;;;;;;;12.03;4.40;;;;;;;9.21;100.00;100815.00;5016530;28;20046;-80
2023/03/22 00:51:23;;;;;;;10.80;5.00;;;;;;;9.06;100.00;100793.53;5920303;23;20069;-83
2023/03/22 00:53:49;;;;;;;13.47;5.27;;;;;;;8.99;100.00;100787.25;4977467;28;20030;-83
2023/03/22 00:56:15;;;;;;;12.50;5.40;;;;;;;9.01;100.00;100787.91;4991805;28;20085;-83
2023/03/22 00:58:42;;;;;;;14.87;5.63;;;;;;;9.00;100.00;100788.91;4993042;28;20057;-83
2023/03/22 01:01:07;;;;;;;11.97;5.23;;;;;;;8.98;100.00;100785.59;4992500;28;20033;-83
2023/03/22 01:03:33;;;;;;;13.67;5.27;;;;;;;8.98;100.00;100783.72;4983214;28;20045;-83
2023/03/22 01:05:59;;;;;;;10.77;5.57;;;;;;;8.95;100.00;100787.66;4993175;28;20121;-83
2023/03/22 01:08:24;;;;;;;9.70;5.70;;;;;;;8.96;100.00;100774.97;4993206;28;20145;-83
2023/03/22 01:10:50;;;;;;;12.37;5.70;;;;;;;8.98;100.00;100774.78;5000392;28;20026;-83
2023/03/22 01:13:16;;;;;;;13.57;6.33;;;;;;;8.95;100.00;100763.34;4994618;28;20025;-83
2023/03/22 01:15:41;;;;;;;12.60;6.10;;;;;;;8.94;100.00;100760.84;4993901;28;20040;-83
2023/03/22 01:18:07;;;;;;;13.33;6.53;;;;;;;8.91;100.00;100764.78;4993163;28;20561;-83
2023/03/22 01:20:34;;;;;;;12.50;6.17;;;;;;;8.88;100.00;100756.25;4996812;28;20061;-83
2023/03/22 01:23:00;;;;;;;13.70;6.17;;;;;;;8.84;100.00;100755.84;4992999;28;20097;-83
2023/03/22 01:25:25;;;;;;;10.47;6.30;;;;;;;8.87;100.00;100747.31;5000195;28;20084;-83
2023/03/22 01:27:50;;;;;;;13.40;6.50;;;;;;;8.85;100.00;100741.25;4978293;28;20046;-83
2023/03/22 01:30:16;;;;;;;15.27;6.50;;;;;;;8.80;100.00;100732.97;4991628;28;20038;-83
2023/03/22 01:32:41;;;;;;;11.67;6.77;;;;;;;8.78;100.00;100722.38;4990168;28;20034;-83
2023/03/22 01:35:07;;;;;;;12.73;7.07;;;;;;;8.78;100.00;100716.97;4995614;28;20114;-83
2023/03/22 01:37:33;;;;;;;13.53;7.50;;;;;;;8.82;100.00;100708.44;4991832;28;20052;-83
2023/03/22 01:39:58;;;;;;;14.10;7.47;;;;;;;8.83;100.00;100702.81;4992552;28;20085;-83
2023/03/22 01:42:25;;;;;;;15.53;7.97;;;;;;;8.84;100.00;100701.78;4996240;28;20022;-83
2023/03/22 01:45:12;;;;;;;13.63;8.30;;;;;;;8.89;100.00;100693.06;4991987;28;20025;-82
2023/03/22 01:47:44;;;;;;;16.50;8.70;;;;;;;8.94;100.00;100696.81;4990718;28;20026;-83
2023/03/22 01:50:10;;;;;;;14.63;9.13;;;;;;;8.94;100.00;100688.72;4994027;28;20130;-83
2023/03/22 01:52:36;;;;;;;16.67;10.07;;;;;;;8.99;100.00;100685.41;4985318;28;20415;-83
2023/03/22 01:55:05;;;;;;;17.00;9.50;;;;;;;9.03;100.00;100680.41;4978049;28;20030;-83
2023/03/22 01:57:32;;;;;;;17.30;10.07;;;;;;;9.07;100.00;100668.16;4987815;28;20018;-83
2023/03/22 01:59:58;;;;;;;16.87;10.07;;;;;;;9.09;100.00;100664.19;4985755;28;20121;-82
2023/03/22 02:02:24;;;;;;;13.97;10.47;;;;;;;9.18;100.00;100664.00;4983316;28;20157;-83
2023/03/22 02:04:50;;;;;;;16.50;11.77;;;;;;;9.15;100.00;100665.25;4985407;28;20112;-83
2023/03/22 02:07:26;;;;;;;18.03;11.37;;;;;;;9.21;100.00;100659.03;4989378;28;20054;-83
2023/03/22 02:09:52;;;;;;;18.33;11.07;;;;;;;9.27;100.00;100647.38;4989385;28;20040;-83
2023/03/22 02:12:20;;;;;;;20.57;11.90;;;;;;;9.29;100.00;100658.81;5001519;28;20026;-83
2023/03/22 02:14:59;;;;;;;17.10;11.27;;;;;;;9.32;100.00;100648.63;4985195;28;20026;-83
2023/03/22 02:17:32;;;;;;;17.77;11.90;;;;;;;9.36;100.00;100647.19;4985400;28;20019;-83
2023/03/22 02:20:29;;;;;;;17.10;11.30;;;;;;;9.40;100.00;100645.72;4984597;28;20100;-83
2023/03/22 02:23:12;;;;;;;17.50;11.93;;;;;;;9.41;100.00;100644.66;4986006;28;20488;-83
2023/03/22 02:25:43;;;;;;;16.33;11.40;;;;;;;9.44;100.00;100642.38;4987334;28;20494;-83
2023/03/22 02:28:27;;;;;;;18.90;12.50;;;;;;;9.44;100.00;100634.25;4996145;28;20516;-83
2023/03/22 02:31:01;;;;;;;17.13;11.67;;;;;;;9.42;100.00;100641.78;4985234;28;20031;-82
2023/03/22 02:34:04;;;;;;;16.10;11.53;;;;;;;9.49;100.00;100630.91;4990750;28;20030;-83
2023/03/22 02:36:55;;;;;;;16.90;11.03;;;;;;;9.47;100.00;100635.72;4985882;28;20041;-83
2023/03/22 02:39:47;;;;;;;16.63;11.83;;;;;;;9.50;100.00;100629.88;4980990;28;20035;-81
2023/03/22 02:42:20;;;;;;;17.13;10.80;;;;;;;9.55;100.00;100640.91;4974698;28;20043;-81
2023/03/22 02:45:00;;;;;;;15.00;11.10;;;;;;;9.54;100.00;100630.31;4973439;28;20038;-81
2023/03/22 02:47:41;;;;;;;14.60;10.33;;;;;;;9.56;100.00;100634.47;4974040;28;20045;-81
2023/03/22 02:50:06;;;;;;;16.57;10.87;;;;;;;9.56;100.00;100622.78;4975497;28;20945;-81
2023/03/22 02:52:43;;;;;;;17.90;11.27;;;;;;;9.56;100.00;100630.91;4972654;28;20054;-81
2023/03/22 02:55:26;;;;;;;14.80;10.50;;;;;;;9.65;100.00;100618.00;4992696;28;20030;-83
2023/03/22 02:58:05;;;;;;;15.30;10.33;;;;;;;9.59;100.00;100617.00;4985516;28;20481;-83
2023/03/22 03:00:34;;;;;;;14.83;9.97;;;;;;;9.61;100.00;100614.88;4994949;28;20370;-83
2023/03/22 03:03:10;;;;;;;12.63;9.07;;;;;;;9.62;100.00;100617.38;4986801;28;20037;-83
2023/03/22 03:05:38;;;;;;;13.10;8.90;;;;;;;9.67;100.00;100611.34;4982740;28;20018;-83
2023/03/22 03:08:06;;;;;;;16.13;9.50;;;;;;;9.72;100.00;100597.19;4983090;28;20031;-82
2023/03/22 03:10:33;;;;;;;14.27;8.37;;;;;;;9.74;100.00;100600.50;4998076;28;20066;-83
2023/03/22 03:12:58;;;;;;;13.53;8.40;;;;;;;9.74;100.00;100603.22;4993854;28;20037;-83
2023/03/22 03:15:24;;;;;;;11.87;8.20;;;;;;;9.77;100.00;100600.91;4998497;28;21146;-83
2023/03/22 03:18:01;;;;;;;13.10;8.50;;;;;;;9.77;100.00;100597.38;4966534;28;20593;-82
2023/03/22 03:20:59;;;;;;;11.50;7.77;;;;;;;9.76;100.00;100599.25;4985609;28;20027;-82
2023/03/22 03:23:45;;;;;;;11.90;7.63;;;;;;;9.77;100.00;100602.78;4982203;28;20421;-83
2023/03/22 03:26:32;;;;;;;10.97;7.37;;;;;;;9.79;100.00;100603.38;4977985;28;20042;-82
2023/03/22 03:29:05;;;;;;;12.37;8.10;;;;;;;9.77;100.00;100590.06;4983791;28;20070;-83
2023/03/22 03:31:41;;;;;;;11.50;7.33;;;;;;;9.83;100.00;100606.50;4984471;28;20034;-83
2023/03/22 03:34:19;;;;;;;10.27;7.07;;;;;;;9.83;100.00;100585.69;4981989;28;20043;-83
2023/03/22 03:37:07;;;;;;;12.20;6.70;;;;;;;9.80;100.00;100597.78;4978956;28;20045;-81
2023/03/22 03:39:38;;;;;;;11.93;6.73;;;;;;;9.79;100.00;100584.44;4974236;28;20109;-81
2023/03/22 03:42:07;;;;;;;11.70;7.07;;;;;;;9.77;100.00;100591.97;4974227;28;20026;-81
2023/03/22 03:44:34;;;;;;;11.83;7.20;;;;;;;9.75;100.00;100589.47;4974422;28;20022;-81
2023/03/22 03:47:01;;;;;;;12.13;7.13;;;;;;;9.74;100.00;100589.69;4973945;28;20035;-81
2023/03/22 03:49:26;;;;;;;11.03;6.57;;;;;;;9.70;100.00;100588.47;4972209;28;20042;-81
2023/03/22 03:51:54;;;;;;;11.60;7.00;;;;;;;9.68;100.00;100604.88;4972234;28;20619;-81
2023/03/22 03:54:20;;;;;;;11.07;6.37;;;;;;;9.65;100.00;100599.91;4988518;28;20034;-80
2023/03/22 03:56:47;;;;;;;10.60;6.83;;;;;;;9.65;100.00;100601.78;4972953;28;20077;-81
2023/03/22 03:59:16;;;;;;;11.53;6.60;;;;;;;9.62;100.00;100594.91;4974259;28;20405;-81
2023/03/22 04:01:51;;;;;;;13.97;7.17;;;;;;;9.57;100.00;100606.38;4980539;28;20118;-80
2023/03/22 04:04:25;;;;;;;11.73;7.20;;;;;;;9.55;100.00;100604.94;4971821;28;20104;-81
2023/03/22 04:06:55;;;;;;;11.88;6.28;;;;;;;9.51;100.00;100604.50;4973048;28;20033;-82
2023/03/22 04:09:26;;;;;;;12.10;6.00;;;;;;;9.53;100.00;100590.78;4984826;28;20658;-82
2023/03/22 04:11:52;;;;;;;10.03;5.90;;;;;;;9.50;100.00;100591.19;4985680;28;20026;-83
2023/03/22 04:14:18;;;;;;;11.70;6.23;;;;;;;9.49;100.00;100590.34;4987644;28;20046;-83
2023/03/22 04:16:43;;;;;;;12.63;6.03;;;;;;;9.43;100.00;100585.81;4983023;28;20428;-82
2023/03/22 04:19:08;;;;;;;11.27;5.97;;;;;;;9.40;100.00;100586.22;4985094;28;20104;-83
2023/03/22 04:21:34;;;;;;;12.20;5.70;;;;;;;9.37;100.00;100590.19;4983441;28;20076;-83
2023/03/22 04:24:00;;;;;;;10.57;5.77;;;;;;;9.44;100.00;100587.47;4983934;28;20085;-82
2023/03/22 04:26:26;;;;;;;12.10;5.83;;;;;;;9.43;100.00;100581.22;4987259;28;20392;-83
2023/03/22 04:28:51;;;;;;;10.73;5.53;;;;;;;9.40;100.00;100580.81;4980199;28;20047;-83
2023/03/22 04:31:17;;;;;;;8.97;5.23;;;;;;;9.41;100.00;100583.31;4987052;28;20482;-83
2023/03/22 04:33:46;;;;;;;12.13;6.30;;;;;;;9.40;100.00;100580.81;4976796;28;20390;-80
2023/03/22 04:36:16;;;;;;;13.33;6.00;;;;;;;9.29;100.00;100575.00;4971500;28;20042;-80
2023/03/22 04:38:42;;;;;;;12.30;6.10;;;;;;;9.31;100.00;100571.25;4974655;28;20038;-80
2023/03/22 04:41:08;;;;;;;11.97;5.90;;;;;;;9.29;100.00;100577.69;4996095;28;20069;-83
2023/03/22 04:43:34;;;;;;;9.70;5.53;;;;;;;9.27;100.00;100577.09;4976365;28;20174;-81
2023/03/22 04:46:03;;;;;;;11.20;5.20;;;;;;;9.23;100.00;100562.34;4972548;28;20093;-80
2023/03/22 04:48:28;;;;;;;10.33;5.47;;;;;;;9.23;100.00;100559.63;4970459;28;20125;-81
2023/03/22 04:50:55;;;;;;;10.17;5.60;;;;;;;9.20;100.00;100568.13;4971257;28;20041;-81
2023/03/22 04:53:26;;;;;;;12.67;5.40;;;;;;;9.21;100.00;100566.28;4970789;28;20058;-80
2023/03/22 04:55:52;;;;;;;11.27;5.60;;;;;;;9.26;100.00;100559.22;4975128;28;20520;-83
2023/03/22 04:58:20;;;;;;;11.20;5.30;;;;;;;9.21;100.00;100567.09;4981858;28;20100;-83
2023/03/22 05:00:47;;;;;;;10.53;5.70;;;;;;;9.21;100.00;100560.88;4985271;28;20080;-83
2023/03/22 05:03:12;;;;;;;10.30;5.53;;;;;;;9.22;100.00;100562.53;4983519;28;20378;-82
2023/03/22 05:05:38;;;;;;;10.10;5.60;;;;;;;9.24;100.00;100555.03;4984597;28;20027;-83
2023/03/22 05:08:05;;;;;;;11.20;5.10;;;;;;;9.20;100.00;100564.63;4983868;28;20030;-83
2023/03/22 05:10:31;;;;;;;12.40;5.23;;;;;;;9.17;100.00;100559.63;4978612;28;20034;-83
2023/03/22 05:12:56;;;;;;;10.47;5.10;;;;;;;9.18;100.00;100551.31;4985695;28;20085;-83
2023/03/22 05:15:22;;;;;;;10.73;4.70;;;;;;;9.19;100.00;100552.13;4964481;28;20117;-82
2023/03/22 05:17:47;;;;;;;11.70;5.20;;;;;;;9.16;100.00;100558.78;4982820;28;20035;-82
2023/03/22 05:20:13;;;;;;;9.77;4.97;;;;;;;9.24;100.00;100547.75;4983013;28;20033;-83
2023/03/22 05:22:39;;;;;;;11.40;5.00;;;;;;;9.18;100.00;100554.03;4983555;28;20117;-82
2023/03/22 05:25:06;;;;;;;10.10;5.00;;;;;;;9.15;100.00;100556.31;4984783;28;20447;-83
2023/03/22 05:27:33;;;;;;;8.50;4.70;;;;;;;9.16;100.00;100552.56;4979229;28;20057;-82
2023/03/22 05:30:00;;;;;;;9.07;4.40;;;;;;;9.15;100.00;100546.31;4981334;28;20506;-82
2023/03/22 05:32:28;;;;;;;10.60;4.40;;;;;;;9.14;100.00;100544.66;4984481;28;20122;-82
2023/03/22 05:34:54;;;;;;;8.83;4.47;;;;;;;9.16;100.00;100545.28;4982245;28;20088;-83
2023/03/22 05:37:20;;;;;;;9.63;4.50;;;;;;;9.12;100.00;100553.00;5000171;28;20034;-83
2023/03/22 05:39:45;;;;;;;10.40;4.93;;;;;;;9.15;100.00;100557.13;4983544;28;20053;-83
2023/03/22 05:42:11;;;;;;;9.90;4.80;;;;;;;9.12;100.00;100552.13;4984478;28;20503;-83
2023/03/22 05:44:36;;;;;;;12.80;5.03;;;;;;;9.16;100.00;100557.97;4980580;28;20026;-82
2023/03/22 05:47:01;;;;;;;13.20;4.90;;;;;;;9.13;100.00;100553.81;4982764;28;20027;-83
2023/03/22 05:49:27;;;;;;;10.43;4.73;;;;;;;9.15;100.00;100551.72;4979403;28;20033;-81
2023/03/22 05:51:52;;;;;;;14.93;5.37;;;;;;;9.15;100.00;100549.00;4972391;28;20031;-80
2023/03/22 05:54:17;;;;;;;12.83;4.80;;;;;;;9.06;100.00;100547.59;4969835;28;20038;-80
2023/03/22 05:56:43;;;;;;;15.40;6.30;;;;;;;9.08;100.00;100545.50;4971934;28;20035;-80
2023/03/22 05:59:08;;;;;;;14.20;6.40;;;;;;;9.16;100.00;100549.88;4986012;28;20470;-80
2023/03/22 06:01:34;;;;;;;13.80;5.50;;;;;;;9.17;100.00;100544.25;4970903;28;20034;-81
2023/03/22 06:03:59;;;;;;;13.67;5.23;;;;;;;9.08;100.00;100551.75;4970577;28;20023;-80
2023/03/22 06:06:26;;;;;;;11.83;5.60;;;;;;;9.23;100.00;100562.34;4970519;28;20030;-81
2023/03/22 06:08:52;;;;;;;17.17;6.33;;;;;;;9.20;100.00;100554.63;4971778;28;20363;-80
2023/03/22 06:11:18;;;;;;;13.20;5.50;;;;;;;9.24;100.00;100555.03;4970333;28;20036;-80
2023/03/22 06:13:43;;;;;;;14.53;5.47;;;;;;;9.21;100.00;100558.19;4971864;28;20035;-81
2023/03/22 06:16:09;;;;;;;14.03;5.70;;;;;;;9.20;100.00;100548.41;4986525;28;20038;-80
2023/03/22 06:18:34;;;;;;;12.80;5.00;;;;;;;9.22;100.00;100539.03;4972243;28;20454;-81
2023/03/22 06:21:00;;;;;;;15.63;5.47;;;;;;;9.28;100.00;100543.59;4974185;28;20035;-83
2023/03/22 06:23:26;;;;;;;14.53;5.37;;;;;;;9.23;100.00;100538.00;4989476;28;20101;-82
2023/03/22 06:25:51;;;;;;;13.30;4.60;;;;;;;9.34;100.00;100536.50;4981032;28;20034;-83
2023/03/22 06:28:16;;;;;;;12.47;5.30;;;;;;;9.35;100.00;100540.06;4981965;28;20061;-83
2023/03/22 06:30:42;;;;;;;15.00;5.40;;;;;;;9.35;100.00;100542.75;4980457;28;20034;-83
2023/03/22 06:33:07;;;;;;;13.43;5.33;;;;;;;9.37;100.00;100552.31;4965325;28;20038;-83
2023/03/22 06:35:33;;;;;;;11.37;4.40;;;;;;;9.43;100.00;100543.34;4979712;28;20053;-82
2023/03/22 06:37:59;;;;;;;15.47;5.30;;;;;;;9.44;100.00;100544.19;4983930;28;20053;-83
2023/03/22 06:40:24;;;;;;;13.83;4.70;;;;;;;9.47;100.00;100541.06;4966375;28;20088;-83
2023/03/22 06:42:50;;;;;;;16.60;5.70;;;;;;;9.49;100.00;100541.66;4981823;28;20030;-81
2023/03/22 06:45:15;;;;;;;12.97;4.60;;;;;;;9.56;100.00;100557.88;4975535;28;20073;-82
2023/03/22 06:47:44;;;;;;;12.47;4.63;;;;;;;9.61;100.00;100556.22;4984467;28;20041;-83
2023/03/22 06:50:10;;;;;;;12.00;4.53;;;;;;;9.66;100.00;100565.56;4983355;28;20371;-82
2023/03/22 06:52:35;;;;;;;9.80;4.57;;;;;;;9.71;100.00;100554.94;4983999;28;20049;-82
2023/03/22 06:55:01;;;;;;;11.53;4.33;;;;;;;9.69;100.00;100541.63;4995244;28;20516;-83
2023/03/22 06:57:26;;;;;;;11.70;4.47;;;;;;;9.74;100.00;100554.53;4982659;28;20026;-82
2023/03/22 06:59:52;;;;;;;10.03;4.70;;;;;;;9.79;100.00;100546.56;4999834;28;20068;-83
2023/03/22 07:02:17;;;;;;;11.10;4.93;;;;;;;9.79;100.00;100552.81;4996338;28;20073;-83
2023/03/22 07:04:44;;;;;;;12.40;4.57;;;;;;;9.87;100.00;100550.91;4983282;28;20812;-83
2023/03/22 07:07:10;;;;;;;13.40;4.57;;;;;;;9.93;100.00;100552.78;4984650;28;20038;-84
2023/03/22 07:09:35;;;;;;;12.60;5.47;;;;;;;10.01;100.00;100549.81;4977914;28;20030;-80
2023/03/22 07:12:00;;;;;;;11.27;4.50;;;;;;;10.00;100.00;100531.09;4987410;28;22389;-81
2023/03/22 07:14:27;;;;;;;10.30;4.20;;;;;;;10.06;100.00;100547.31;4973100;28;20062;-81
2023/03/22 07:16:52;;;;;;;11.63;4.50;;;;;;;10.08;100.00;100538.97;4974427;28;20041;-86
2023/03/22 07:19:18;;;;;;;10.37;4.73;;;;;;;10.05;100.00;100548.34;4977192;28;20047;-81
2023/03/22 07:21:43;;;;;;;12.27;4.60;;;;;;;10.06;100.00;100550.03;4976523;28;20034;-81
2023/03/22 07:24:10;;;;;;;13.43;5.13;;;;;;;10.03;100.00;100549.63;4975160;28;20057;-81
2023/03/22 07:26:37;;;;;;;12.63;4.77;;;;;;;10.02;100.00;100561.47;4975565;28;20045;-81
2023/03/22 07:29:02;;;;;;;12.10;4.70;;;;;;;9.98;100.00;100542.13;4987230;28;20034;-81
2023/03/22 07:31:28;;;;;;;12.50;4.47;;;;;;;10.02;100.00;100554.19;4974307;28;20050;-81
2023/03/22 07:33:53;;;;;;;11.77;4.33;;;;;;;10.01;100.00;100557.94;4976117;28;20037;-81
2023/03/22 07:36:24;;;;;;;10.53;4.40;;;;;;;10.08;100.00;100560.63;4974478;28;20039;-81
2023/03/22 07:38:50;;;;;;;12.47;4.53;;;;;;;10.08;100.00;100566.88;4982256;28;20246;-81
2023/03/22 07:41:16;;;;;;;10.37;4.40;;;;;;;10.07;100.00;100567.09;4989952;28;20133;-81
2023/03/22 07:43:41;;;;;;;11.17;4.87;;;;;;;10.17;100.00;100543.06;4974384;28;20030;-81
2023/03/22 07:46:07;;;;;;;13.23;4.70;;;;;;;10.22;100.00;100556.78;4973798;28;20038;-81
2023/03/22 07:48:33;;;;;;;11.63;5.37;;;;;;;10.26;100.00;100552.59;4973735;28;20030;-81
2023/03/22 07:50:58;;;;;;;13.30;5.47;;;;;;;10.22;100.00;100562.19;4976340;28;20030;-81
2023/03/22 07:53:24;;;;;;;10.53;4.70;;;;;;;10.31;100.00;100558.19;4973735;28;20514;-81
2023/03/22 07:55:50;;;;;;;10.33;5.10;;;;;;;10.35;100.00;100568.63;4974396;28;20030;-81
2023/03/22 07:58:15;;;;;;;12.23;4.60;;;;;;;10.46;100.00;100563.34;4974399;28;20099;-81
2023/03/22 08:00:40;;;;;;;13.70;5.40;;;;;;;10.37;100.00;100574.66;4990608;28;20658;-82
2023/03/22 08:03:06;;;;;;;11.17;4.87;;;;;;;10.44;100.00;100579.00;4996538;28;20762;-83
2023/03/22 08:05:31;;;;;;;10.97;4.80;;;;;;;10.49;100.00;100572.94;4986243;28;20070;-83
2023/03/22 08:07:56;;;;;;;10.97;4.27;;;;;;;10.51;100.00;100572.69;4987303;28;20042;-83
2023/03/22 08:10:22;;;;;;;10.67;4.40;;;;;;;10.45;100.00;100560.88;4982749;28;20033;-82
2023/03/22 08:12:47;;;;;;;12.00;4.73;;;;;;;10.48;100.00;100546.88;4984915;28;20038;-82
2023/03/22 08:15:13;;;;;;;10.23;3.87;;;;;;;10.53;100.00;100567.91;4997605;28;20046;-83
2023/03/22 08:17:39;;;;;;;11.80;4.00;;;;;;;10.47;100.00;100565.03;4976388;28;20034;-81
2023/03/22 08:20:08;;;;;;;10.67;4.00;;;;;;;10.55;99.50;100572.06;4974362;28;20492;-81
2023/03/22 08:22:35;;;;;;;9.10;3.20;;;;;;;10.59;98.84;100578.72;4975332;28;20038;-81
2023/03/22 08:25:01;;;;;;;10.27;3.60;;;;;;;10.61;98.10;100560.34;4989114;28;20146;-81
2023/03/22 08:27:26;;;;;;;10.10;3.60;;;;;;;10.67;97.96;100582.19;4973526;28;20134;-81
2023/03/22 08:29:52;;;;;;;7.73;3.23;;;;;;;10.72;98.49;100583.19;4976646;28;20793;-83
2023/03/22 08:32:17;;;;;;;10.87;3.63;;;;;;;10.80;97.46;100560.44;4982911;28;20042;-83
2023/03/22 08:34:43;;;;;;;9.77;3.63;;;;;;;10.85;96.99;100562.47;4984313;28;20037;-83
2023/03/22 08:37:10;;;;;;;9.70;3.20;;;;;;;10.91;96.25;100580.56;4982859;28;20394;-83
2023/03/22 08:39:36;;;;;;;8.43;3.13;;;;;;;11.00;95.99;100557.53;4984972;28;20041;-83
2023/03/22 08:42:01;;;;;;;12.03;3.10;;;;;;;11.05;95.79;100557.69;4978768;28;20038;-83
2023/03/22 08:44:27;;;;;;;9.40;3.10;;;;;;;11.10;95.12;100576.03;4990544;28;20053;-83
2023/03/22 08:46:53;;;;;;;9.47;2.77;;;;;;;11.10;94.19;100557.88;4981260;28;20038;-83
2023/03/22 08:49:18;;;;;;;10.23;3.10;;;;;;;11.10;94.01;100543.50;4982562;28;20037;-83
2023/03/22 08:51:44;;;;;;;9.87;3.10;;;;;;;11.12;94.70;100554.94;4980758;28;20045;-83
2023/03/22 08:54:09;;;;;;;13.17;3.40;;;;;;;11.12;94.24;100544.94;4981332;28;20054;-83
2023/03/22 08:56:36;;;;;;;11.17;2.93;;;;;;;11.19;94.38;100555.69;4999280;28;20042;-83
2023/03/22 08:59:03;;;;;;;9.57;2.90;;;;;;;11.17;94.44;100565.94;4993925;28;20478;-83
2023/03/22 09:01:29;;;;;;;9.50;2.97;;;;;;;11.23;94.05;100575.06;4981435;28;20066;-83
2023/03/22 09:03:55;;;;;;;9.23;3.07;;;;;;;11.31;93.50;100575.63;4986900;28;21725;-83
2023/03/22 09:06:20;;;;;;;11.77;2.93;;;;;;;11.37;93.20;100548.63;4983657;28;20048;-83
2023/03/22 09:08:46;;;;;;;11.43;3.10;;;;;;;11.44;92.16;100554.84;4979334;28;20039;-82
2023/03/22 09:11:12;;;;;;;10.43;3.40;;;;;;;11.40;91.97;100561.78;4971323;28;20422;-81
2023/03/22 09:13:37;;;;;;;11.13;3.10;;;;;;;11.41;92.20;100555.28;4973054;28;20047;-81
2023/03/22 09:16:05;;;;;;;10.33;2.90;;;;;;;11.49;92.31;100549.56;4973015;28;20090;-82
2023/03/22 09:18:31;;;;;;;8.23;2.80;;;;;;;11.45;91.33;100548.34;4973987;28;20134;-81
2023/03/22 09:20:57;;;;;;;9.37;3.03;;;;;;;11.45;91.46;100545.63;4975128;28;20038;-81
2023/03/22 09:23:22;;;;;;;8.13;2.73;;;;;;;11.61;91.59;100542.34;4974264;28;20445;-82
2023/03/22 09:25:48;;;;;;;8.50;2.63;;;;;;;11.69;90.50;100534.94;4972949;28;20038;-81
2023/03/22 09:28:14;;;;;;;8.67;2.77;;;;;;;11.74;89.26;100538.63;4972252;28;20092;-81
2023/03/22 09:30:39;;;;;;;10.40;2.53;;;;;;;11.79;89.61;100532.50;4989330;28;20049;-81
2023/03/22 09:33:08;;;;;;;10.27;2.87;;;;;;;11.73;88.23;100528.00;4974382;28;20030;-81
2023/03/22 09:35:33;;;;;;;9.77;2.63;;;;;;;11.77;87.07;100546.31;4973484;28;20043;-81
2023/03/22 09:37:59;;;;;;;11.57;3.00;;;;;;;11.74;88.18;100521.53;4975852;28;20037;-81
2023/03/22 09:40:30;;;;;;;10.03;2.90;;;;;;;11.63;88.51;100502.22;4984379;28;20031;-81
2023/03/22 09:43:03;;;;;;;8.80;2.70;;;;;;;11.67;88.90;100543.31;4974172;28;20027;-81
2023/03/22 09:45:41;;;;;;;9.27;2.70;;;;;;;11.54;88.46;100533.44;4974414;28;20038;-82
2023/03/22 09:48:22;;;;;;;9.27;2.50;;;;;;;11.65;88.67;100518.28;4973088;28;20122;-81
2023/03/22 09:50:51;;;;;;;9.90;2.73;;;;;;;11.57;90.42;100524.00;4973678;28;20027;-82
2023/03/22 09:53:18;;;;;;;9.73;3.10;;;;;;;11.62;89.40;100522.28;4974376;28;20495;-82
2023/03/22 09:56:05;;;;;;;8.57;2.60;;;;;;;11.69;89.79;100529.53;4974630;28;20034;-83
2023/03/22 09:59:06;;;;;;;8.67;2.67;;;;;;;11.65;88.94;100531.84;4979675;28;20052;-83
2023/03/22 10:01:59;;;;;;;8.53;2.43;;;;;;;11.77;88.09;100521.06;4980719;28;20033;-83
2023/03/22 10:04:42;;;;;;;8.00;2.50;;;;;;;11.60;87.77;100512.69;4980040;28;20125;-83
2023/03/22 10:07:23;;;;;;;8.47;2.60;;;;;;;11.60;89.44;100540.69;4998468;28;20039;-83
2023/03/22 10:10:24;;;;;;;16.33;3.37;;;;;;;11.61;88.76;100520.63;4981494;28;20038;-83
2023/03/22 10:13:06;;;;;;;10.83;3.10;;;;;;;11.68;88.90;100547.66;4922222;29;20133;-82
2023/03/22 10:15:49;;;;;;;9.73;2.63;;;;;;;11.61;88.24;100514.38;4981859;28;20053;-83
2023/03/22 10:18:22;;;;;;;9.33;2.33;;;;;;;11.61;89.15;100525.22;4987132;28;20022;-83
2023/03/22 10:20:52;;;;;;;7.50;2.70;;;;;;;11.56;89.60;100528.63;4986270;28;20049;-84
2023/03/22 10:23:53;;;;;;;10.17;2.53;;;;;;;11.66;89.70;100545.19;4989514;28;20031;-83
2023/03/22 10:26:36;;;;;;;7.43;2.53;;;;;;;11.45;91.23;100526.63;4984696;28;20516;-83
2023/03/22 10:29:22;;;;;;;10.07;2.87;;;;;;;11.53;92.82;100555.38;4991330;28;20026;-83
2023/03/22 10:31:47;;;;;;;9.67;2.90;;;;;;;11.25;94.07;100554.00;4980677;28;20052;-84
2023/03/22 10:34:21;;;;;;;8.77;2.50;;;;;;;11.22;95.43;100544.41;4990215;28;20042;-83
2023/03/22 10:36:50;;;;;;;9.10;3.23;;;;;;;11.12;96.83;100560.34;4989347;28;20030;-83
2023/03/22 10:39:37;;;;;;;10.57;2.80;;;;;;;10.97;99.11;100550.69;4990098;28;20036;-83
2023/03/22 10:42:09;;;;;;;8.97;3.10;;;;;;;10.78;100.00;100555.22;4991604;28;21596;-83
2023/03/22 10:44:48;;;;;;;10.93;3.20;;;;;;;10.66;100.00;100546.13;4990197;28;20034;-83
2023/03/22 10:47:17;;;;;;;10.37;3.17;;;;;;;10.57;100.00;100561.00;4989580;28;20029;-83
2023/03/22 10:49:53;;;;;;;11.03;3.10;;;;;;;10.52;100.00;100567.06;4990692;28;20102;-83
2023/03/22 10:52:56;;;;;;;10.23;2.90;;;;;;;10.46;100.00;100557.13;4987551;28;20097;-83
2023/03/22 10:55:23;;;;;;;11.17;3.40;;;;;;;10.42;100.00;100536.94;4988677;28;20034;-83
2023/03/22 10:58:15;;;;;;;10.80;3.43;;;;;;;10.44;100.00;100542.94;4976510;28;20034;-81
2023/03/22 11:00:53;;;;;;;11.97;3.63;;;;;;;10.45;100.00;100556.28;4977062;28;20087;-81
2023/03/22 11:03:35;;;;;;;11.00;3.20;;;;;;;10.28;100.00;100550.53;4976075;28;20639;-81
2023/03/22 11:06:06;;;;;;;12.10;3.43;;;;;;;10.34;100.00;100554.22;4978205;28;20122;-81
2023/03/22 11:08:55;;;;;;;10.23;3.73;;;;;;;10.25;100.00;100550.13;4978229;28;20026;-81
2023/03/22 11:11:24;;;;;;;9.40;3.40;;;;;;;10.26;100.00;100541.78;4978843;28;20034;-81
2023/03/22 11:13:53;;;;;;;10.93;3.10;;;;;;;10.14;100.00;100541.66;4976730;28;20036;-81
2023/03/22 11:16:19;;;;;;;10.20;3.50;;;;;;;10.06;100.00;100541.06;4978640;28;20600;-81
2023/03/22 11:18:45;;;;;;;10.10;3.27;;;;;;;10.11;100.00;100544.75;4975715;28;20044;-81
2023/03/22 11:21:13;;;;;;;11.60;3.60;;;;;;;10.09;100.00;100540.59;4977372;28;20061;-81
2023/03/22 11:23:53;;;;;;;10.67;3.30;;;;;;;10.09;100.00;100546.88;4987683;28;20027;-84
2023/03/22 11:26:29;;;;;;;11.10;3.80;;;;;;;10.03;100.00;100536.06;4987888;28;20030;-83
2023/03/22 11:29:03;;;;;;;11.90;3.60;;;;;;;10.06;100.00;100535.63;4991464;28;20061;-83
2023/03/22 11:31:49;;;;;;;10.23;3.60;;;;;;;10.16;100.00;100543.28;5005522;28;20034;-83
2023/03/22 11:34:17;;;;;;;7.70;3.50;;;;;;;10.20;100.00;100534.53;4986719;28;20033;-83
2023/03/22 11:36:46;;;;;;;10.17;4.00;;;;;;;10.29;100.00;100545.91;4988473;28;20045;-82
2023/03/22 11:39:11;;;;;;;11.70;4.30;;;;;;;10.36;100.00;100530.47;4991102;28;20031;-82